sensor_id;sensor_type;location;lat;lon;timestamp;P1;durP1;ratioP1;P2;durP2;ratioP2
23175;SDS011;19910;42.652;23.332;2023-02-28T00:01:30;18.92;;;8.07;;
23175;SDS011;19910;42.652;23.332;2023-02-28T00:03:57;17.45;;;8.05;;
23175;SDS011;19910;42.652;23.332;2023-02-28T00:06:24;22.13;;;9.30;;
23175;SDS011;19910;42.652;23.332;2023-02-28T00:08:51;19.45;;;7.65;;
23175;SDS011;19910;42.652;23.332;2023-02-28T00:11:18;15.43;;;6.78;;
23175;SDS011;19910;42.652;23.332;2023-02-28T00:13:45;16.65;;;8.15;;
23175;SDS011;19910;42.652;23.332;2023-02-28T00:16:15;16.23;;;7.82;;
23175;SDS011;19910;42.652;23.332;2023-02-28T00:18:43;12.98;;;6.32;;
23175;SDS011;19910;42.652;23.332;2023-02-28T00:21:10;13.35;;;6.75;;
23175;SDS011;19910;42.652;23.332;2023-02-28T00:23:37;15.68;;;7.45;;
23175;SDS011;19910;42.652;23.332;2023-02-28T00:26:04;14.40;;;5.40;;
23175;SDS011;19910;42.652;23.332;2023-02-28T00:28:31;15.57;;;6.13;;
23175;SDS011;19910;42.652;23.332;2023-02-28T00:30:58;9.43;;;4.88;;
23175;SDS011;19910;42.652;23.332;2023-02-28T00:33:26;15.15;;;7.20;;
23175;SDS011;19910;42.652;23.332;2023-02-28T00:36:00;22.70;;;7.55;;
23175;SDS011;19910;42.652;23.332;2023-02-28T00:38:28;16.38;;;5.97;;
23175;SDS011;19910;42.652;23.332;2023-02-28T00:40:55;13.80;;;6.68;;
23175;SDS011;19910;42.652;23.332;2023-02-28T00:43:22;11.20;;;5.88;;
23175;SDS011;19910;42.652;23.332;2023-02-28T00:45:48;9.48;;;4.90;;
23175;SDS011;19910;42.652;23.332;2023-02-28T00:48:15;14.07;;;6.72;;
23175;SDS011;19910;42.652;23.332;2023-02-28T00:50:43;11.95;;;6.93;;
23175;SDS011;19910;42.652;23.332;2023-02-28T00:53:10;12.45;;;5.80;;
23175;SDS011;19910;42.652;23.332;2023-02-28T00:55:37;16.08;;;7.57;;
23175;SDS011;19910;42.652;23.332;2023-02-28T00:58:03;12.07;;;6.00;;
23175;SDS011;19910;42.652;23.332;2023-02-28T01:00:30;14.70;;;6.78;;
23175;SDS011;19910;42.652;23.332;2023-02-28T01:02:57;16.50;;;6.85;;
23175;SDS011;19910;42.652;23.332;2023-02-28T01:05:24;16.23;;;6.85;;
23175;SDS011;19910;42.652;23.332;2023-02-28T01:07:52;13.52;;;6.00;;
23175;SDS011;19910;42.652;23.332;2023-02-28T01:10:18;17.25;;;6.30;;
23175;SDS011;19910;42.652;23.332;2023-02-28T01:12:45;15.70;;;6.85;;
23175;SDS011;19910;42.652;23.332;2023-02-28T01:15:12;12.65;;;3.60;;
23175;SDS011;19910;42.652;23.332;2023-02-28T01:17:39;20.50;;;7.90;;
23175;SDS011;19910;42.652;23.332;2023-02-28T01:20:08;15.82;;;6.90;;
23175;SDS011;19910;42.652;23.332;2023-02-28T01:22:36;11.30;;;6.03;;
23175;SDS011;19910;42.652;23.332;2023-02-28T01:25:05;19.70;;;6.38;;
23175;SDS011;19910;42.652;23.332;2023-02-28T01:27:33;11.10;;;5.97;;
23175;SDS011;19910;42.652;23.332;2023-02-28T01:30:00;19.67;;;8.40;;
23175;SDS011;19910;42.652;23.332;2023-02-28T01:32:27;19.02;;;7.75;;
23175;SDS011;19910;42.652;23.332;2023-02-28T01:34:54;21.33;;;7.78;;
23175;SDS011;19910;42.652;23.332;2023-02-28T01:37:21;17.50;;;8.95;;
23175;SDS011;19910;42.652;23.332;2023-02-28T01:39:48;16.42;;;7.72;;
23175;SDS011;19910;42.652;23.332;2023-02-28T01:42:16;14.50;;;7.47;;
23175;SDS011;19910;42.652;23.332;2023-02-28T01:45:03;17.60;;;8.40;;
23175;SDS011;19910;42.652;23.332;2023-02-28T01:47:44;16.73;;;8.13;;
23175;SDS011;19910;42.652;23.332;2023-02-28T01:50:12;17.80;;;8.43;;
23175;SDS011;19910;42.652;23.332;2023-02-28T01:52:42;22.75;;;9.35;;
23175;SDS011;19910;42.652;23.332;2023-02-28T01:55:11;18.13;;;8.90;;
23175;SDS011;19910;42.652;23.332;2023-02-28T01:57:41;27.08;;;10.43;;
23175;SDS011;19910;42.652;23.332;2023-02-28T02:00:13;19.08;;;9.10;;
23175;SDS011;19910;42.652;23.332;2023-02-28T02:02:41;21.08;;;9.25;;
23175;SDS011;19910;42.652;23.332;2023-02-28T02:05:12;21.10;;;8.25;;
23175;SDS011;19910;42.652;23.332;2023-02-28T02:07:43;21.95;;;9.95;;
23175;SDS011;19910;42.652;23.332;2023-02-28T02:10:12;16.42;;;8.27;;
23175;SDS011;19910;42.652;23.332;2023-02-28T02:13:00;21.40;;;10.18;;
23175;SDS011;19910;42.652;23.332;2023-02-28T02:15:34;20.70;;;9.23;;
23175;SDS011;19910;42.652;23.332;2023-02-28T02:18:09;19.02;;;9.07;;
23175;SDS011;19910;42.652;23.332;2023-02-28T02:20:56;19.75;;;8.82;;
23175;SDS011;19910;42.652;23.332;2023-02-28T02:23:56;18.20;;;8.93;;
23175;SDS011;19910;42.652;23.332;2023-02-28T02:26:44;21.45;;;9.27;;
23175;SDS011;19910;42.652;23.332;2023-02-28T02:29:28;20.88;;;9.10;;
23175;SDS011;19910;42.652;23.332;2023-02-28T02:32:17;20.70;;;10.48;;
23175;SDS011;19910;42.652;23.332;2023-02-28T02:35:07;22.92;;;9.73;;
23175;SDS011;19910;42.652;23.332;2023-02-28T02:37:42;26.67;;;10.32;;
23175;SDS011;19910;42.652;23.332;2023-02-28T02:40:14;28.88;;;11.73;;
23175;SDS011;19910;42.652;23.332;2023-02-28T02:42:46;22.15;;;10.35;;
23175;SDS011;19910;42.652;23.332;2023-02-28T02:45:19;23.80;;;9.85;;
23175;SDS011;19910;42.652;23.332;2023-02-28T02:47:50;23.73;;;10.52;;
23175;SDS011;19910;42.652;23.332;2023-02-28T02:50:20;32.92;;;11.43;;
23175;SDS011;19910;42.652;23.332;2023-02-28T02:52:51;32.47;;;12.32;;
23175;SDS011;19910;42.652;23.332;2023-02-28T02:55:22;28.80;;;11.77;;
23175;SDS011;19910;42.652;23.332;2023-02-28T02:57:50;25.17;;;11.95;;
23175;SDS011;19910;42.652;23.332;2023-02-28T03:00:23;28.70;;;11.05;;
23175;SDS011;19910;42.652;23.332;2023-02-28T03:02:54;35.08;;;12.35;;
23175;SDS011;19910;42.652;23.332;2023-02-28T03:05:25;31.23;;;13.23;;
23175;SDS011;19910;42.652;23.332;2023-02-28T03:07:54;44.92;;;14.15;;
23175;SDS011;19910;42.652;23.332;2023-02-28T03:10:34;32.47;;;14.35;;
23175;SDS011;19910;42.652;23.332;2023-02-28T03:13:12;35.45;;;13.88;;
23175;SDS011;19910;42.652;23.332;2023-02-28T03:16:05;37.92;;;13.32;;
23175;SDS011;19910;42.652;23.332;2023-02-28T03:18:54;38.72;;;13.18;;
23175;SDS011;19910;42.652;23.332;2023-02-28T03:21:32;46.58;;;13.32;;
23175;SDS011;19910;42.652;23.332;2023-02-28T03:24:03;34.72;;;12.25;;
23175;SDS011;19910;42.652;23.332;2023-02-28T03:26:34;26.00;;;12.10;;
23175;SDS011;19910;42.652;23.332;2023-02-28T03:29:07;36.85;;;12.93;;
23175;SDS011;19910;42.652;23.332;2023-02-28T03:31:43;32.78;;;14.27;;
23175;SDS011;19910;42.652;23.332;2023-02-28T03:34:14;28.75;;;13.43;;
23175;SDS011;19910;42.652;23.332;2023-02-28T03:36:46;30.08;;;11.73;;
23175;SDS011;19910;42.652;23.332;2023-02-28T03:39:19;31.23;;;13.75;;
23175;SDS011;19910;42.652;23.332;2023-02-28T03:41:51;27.48;;;11.80;;
23175;SDS011;19910;42.652;23.332;2023-02-28T03:44:23;31.08;;;12.27;;
23175;SDS011;19910;42.652;23.332;2023-02-28T03:46:56;31.17;;;12.32;;
23175;SDS011;19910;42.652;23.332;2023-02-28T03:49:27;30.33;;;12.73;;
23175;SDS011;19910;42.652;23.332;2023-02-28T03:52:00;26.13;;;11.73;;
23175;SDS011;19910;42.652;23.332;2023-02-28T03:54:30;26.55;;;11.27;;
23175;SDS011;19910;42.652;23.332;2023-02-28T03:57:03;29.42;;;11.68;;
23175;SDS011;19910;42.652;23.332;2023-02-28T03:59:37;22.90;;;11.38;;
23175;SDS011;19910;42.652;23.332;2023-02-28T04:02:08;31.30;;;11.88;;
23175;SDS011;19910;42.652;23.332;2023-02-28T04:04:35;23.00;;;8.38;;
23175;SDS011;19910;42.652;23.332;2023-02-28T04:07:04;17.45;;;7.88;;
23175;SDS011;19910;42.652;23.332;2023-02-28T04:09:32;23.50;;;10.43;;
23175;SDS011;19910;42.652;23.332;2023-02-28T04:11:59;29.77;;;11.90;;
23175;SDS011;19910;42.652;23.332;2023-02-28T04:14:26;43.22;;;14.65;;
23175;SDS011;19910;42.652;23.332;2023-02-28T04:16:53;30.92;;;12.50;;
23175;SDS011;19910;42.652;23.332;2023-02-28T04:19:20;51.72;;;15.15;;
23175;SDS011;19910;42.652;23.332;2023-02-28T04:21:47;37.03;;;14.80;;
23175;SDS011;19910;42.652;23.332;2023-02-28T04:24:18;36.28;;;13.40;;
23175;SDS011;19910;42.652;23.332;2023-02-28T04:26:46;31.23;;;12.73;;
23175;SDS011;19910;42.652;23.332;2023-02-28T04:29:15;28.50;;;11.45;;
23175;SDS011;19910;42.652;23.332;2023-02-28T04:31:45;33.13;;;10.65;;
23175;SDS011;19910;42.652;23.332;2023-02-28T04:34:12;18.38;;;8.55;;
23175;SDS011;19910;42.652;23.332;2023-02-28T04:36:39;30.20;;;9.63;;
23175;SDS011;19910;42.652;23.332;2023-02-28T04:39:07;31.90;;;11.80;;
23175;SDS011;19910;42.652;23.332;2023-02-28T04:41:36;28.38;;;11.70;;
23175;SDS011;19910;42.652;23.332;2023-02-28T04:44:03;21.38;;;8.25;;
23175;SDS011;19910;42.652;23.332;2023-02-28T04:46:30;23.27;;;10.40;;
23175;SDS011;19910;42.652;23.332;2023-02-28T04:48:56;30.52;;;11.10;;
23175;SDS011;19910;42.652;23.332;2023-02-28T04:51:24;26.15;;;9.98;;
23175;SDS011;19910;42.652;23.332;2023-02-28T04:53:51;22.55;;;9.05;;
23175;SDS011;19910;42.652;23.332;2023-02-28T04:56:20;20.73;;;9.20;;
23175;SDS011;19910;42.652;23.332;2023-02-28T04:58:48;29.90;;;10.38;;
23175;SDS011;19910;42.652;23.332;2023-02-28T05:01:19;24.10;;;10.27;;
23175;SDS011;19910;42.652;23.332;2023-02-28T05:03:48;30.42;;;11.75;;
23175;SDS011;19910;42.652;23.332;2023-02-28T05:06:16;28.67;;;11.25;;
23175;SDS011;19910;42.652;23.332;2023-02-28T05:08:43;29.92;;;11.13;;
23175;SDS011;19910;42.652;23.332;2023-02-28T05:11:13;30.65;;;11.18;;
23175;SDS011;19910;42.652;23.332;2023-02-28T05:13:42;30.42;;;10.93;;
23175;SDS011;19910;42.652;23.332;2023-02-28T05:16:10;25.02;;;10.55;;
23175;SDS011;19910;42.652;23.332;2023-02-28T05:18:37;24.08;;;10.05;;
23175;SDS011;19910;42.652;23.332;2023-02-28T05:21:04;21.23;;;9.90;;
23175;SDS011;19910;42.652;23.332;2023-02-28T05:23:31;33.60;;;11.57;;
23175;SDS011;19910;42.652;23.332;2023-02-28T05:25:58;20.10;;;8.85;;
23175;SDS011;19910;42.652;23.332;2023-02-28T05:28:25;29.02;;;10.60;;
23175;SDS011;19910;42.652;23.332;2023-02-28T05:30:51;23.75;;;10.05;;
23175;SDS011;19910;42.652;23.332;2023-02-28T05:33:19;28.52;;;11.27;;
23175;SDS011;19910;42.652;23.332;2023-02-28T05:35:46;23.92;;;11.43;;
23175;SDS011;19910;42.652;23.332;2023-02-28T05:38:19;29.38;;;10.98;;
23175;SDS011;19910;42.652;23.332;2023-02-28T05:40:45;21.30;;;9.30;;
23175;SDS011;19910;42.652;23.332;2023-02-28T05:43:12;26.55;;;11.10;;
23175;SDS011;19910;42.652;23.332;2023-02-28T05:45:39;30.95;;;11.70;;
23175;SDS011;19910;42.652;23.332;2023-02-28T05:48:06;36.58;;;12.77;;
23175;SDS011;19910;42.652;23.332;2023-02-28T05:50:35;33.08;;;13.13;;
23175;SDS011;19910;42.652;23.332;2023-02-28T05:53:02;37.75;;;14.02;;
23175;SDS011;19910;42.652;23.332;2023-02-28T05:55:29;31.85;;;14.15;;
23175;SDS011;19910;42.652;23.332;2023-02-28T05:57:56;34.00;;;12.68;;
23175;SDS011;19910;42.652;23.332;2023-02-28T06:00:23;32.15;;;12.75;;
23175;SDS011;19910;42.652;23.332;2023-02-28T06:02:51;37.22;;;13.70;;
23175;SDS011;19910;42.652;23.332;2023-02-28T06:05:21;36.45;;;13.45;;
23175;SDS011;19910;42.652;23.332;2023-02-28T06:07:50;35.65;;;12.80;;
23175;SDS011;19910;42.652;23.332;2023-02-28T06:10:16;45.13;;;15.13;;
23175;SDS011;19910;42.652;23.332;2023-02-28T06:12:44;29.10;;;12.77;;
23175;SDS011;19910;42.652;23.332;2023-02-28T06:15:12;45.55;;;16.23;;
23175;SDS011;19910;42.652;23.332;2023-02-28T06:17:40;41.83;;;14.80;;
23175;SDS011;19910;42.652;23.332;2023-02-28T06:20:07;33.88;;;14.32;;
23175;SDS011;19910;42.652;23.332;2023-02-28T06:22:35;42.67;;;16.15;;
23175;SDS011;19910;42.652;23.332;2023-02-28T06:25:04;34.90;;;13.73;;
23175;SDS011;19910;42.652;23.332;2023-02-28T06:27:32;32.17;;;14.90;;
23175;SDS011;19910;42.652;23.332;2023-02-28T06:29:59;35.83;;;13.15;;
23175;SDS011;19910;42.652;23.332;2023-02-28T06:32:29;41.45;;;16.50;;
23175;SDS011;19910;42.652;23.332;2023-02-28T06:34:57;37.22;;;14.93;;
23175;SDS011;19910;42.652;23.332;2023-02-28T06:37:25;42.20;;;16.17;;
23175;SDS011;19910;42.652;23.332;2023-02-28T06:39:52;34.80;;;13.82;;
23175;SDS011;19910;42.652;23.332;2023-02-28T06:42:22;36.60;;;14.43;;
23175;SDS011;19910;42.652;23.332;2023-02-28T06:44:50;41.28;;;16.27;;
23175;SDS011;19910;42.652;23.332;2023-02-28T06:47:16;40.10;;;16.25;;
23175;SDS011;19910;42.652;23.332;2023-02-28T06:49:43;33.15;;;12.93;;
23175;SDS011;19910;42.652;23.332;2023-02-28T06:52:10;33.97;;;12.60;;
23175;SDS011;19910;42.652;23.332;2023-02-28T06:54:37;33.60;;;13.82;;
23175;SDS011;19910;42.652;23.332;2023-02-28T06:57:04;40.53;;;14.40;;
23175;SDS011;19910;42.652;23.332;2023-02-28T06:59:32;43.17;;;16.35;;
23175;SDS011;19910;42.652;23.332;2023-02-28T07:02:00;34.80;;;14.50;;
23175;SDS011;19910;42.652;23.332;2023-02-28T07:04:27;38.97;;;14.77;;
23175;SDS011;19910;42.652;23.332;2023-02-28T07:06:54;37.90;;;14.55;;
23175;SDS011;19910;42.652;23.332;2023-02-28T07:09:22;41.58;;;15.57;;
23175;SDS011;19910;42.652;23.332;2023-02-28T07:11:49;36.33;;;14.90;;
23175;SDS011;19910;42.652;23.332;2023-02-28T07:14:15;35.60;;;14.02;;
23175;SDS011;19910;42.652;23.332;2023-02-28T07:16:44;35.92;;;14.27;;
23175;SDS011;19910;42.652;23.332;2023-02-28T07:19:11;38.67;;;14.73;;
23175;SDS011;19910;42.652;23.332;2023-02-28T07:21:37;34.13;;;13.25;;
23175;SDS011;19910;42.652;23.332;2023-02-28T07:24:04;34.35;;;15.57;;
23175;SDS011;19910;42.652;23.332;2023-02-28T07:26:32;39.92;;;15.88;;
23175;SDS011;19910;42.652;23.332;2023-02-28T07:29:01;43.53;;;16.60;;
23175;SDS011;19910;42.652;23.332;2023-02-28T07:31:27;34.30;;;15.25;;
23175;SDS011;19910;42.652;23.332;2023-02-28T07:33:56;44.88;;;18.20;;
23175;SDS011;19910;42.652;23.332;2023-02-28T07:36:25;40.88;;;16.50;;
23175;SDS011;19910;42.652;23.332;2023-02-28T07:38:52;40.53;;;15.45;;
23175;SDS011;19910;42.652;23.332;2023-02-28T07:41:19;46.85;;;18.25;;
23175;SDS011;19910;42.652;23.332;2023-02-28T07:43:47;46.47;;;17.92;;
23175;SDS011;19910;42.652;23.332;2023-02-28T07:46:15;27.77;;;12.50;;
23175;SDS011;19910;42.652;23.332;2023-02-28T07:48:43;36.42;;;16.30;;
23175;SDS011;19910;42.652;23.332;2023-02-28T07:51:12;34.92;;;16.58;;
23175;SDS011;19910;42.652;23.332;2023-02-28T07:53:39;30.83;;;14.30;;
23175;SDS011;19910;42.652;23.332;2023-02-28T07:56:06;36.15;;;15.18;;
23175;SDS011;19910;42.652;23.332;2023-02-28T07:58:33;40.63;;;15.57;;
23175;SDS011;19910;42.652;23.332;2023-02-28T08:01:04;34.30;;;15.82;;
23175;SDS011;19910;42.652;23.332;2023-02-28T08:03:32;39.13;;;14.57;;
23175;SDS011;19910;42.652;23.332;2023-02-28T08:05:59;37.08;;;15.10;;
23175;SDS011;19910;42.652;23.332;2023-02-28T08:08:28;31.88;;;13.25;;
23175;SDS011;19910;42.652;23.332;2023-02-28T08:10:57;30.38;;;14.35;;
23175;SDS011;19910;42.652;23.332;2023-02-28T08:13:26;28.00;;;13.30;;
23175;SDS011;19910;42.652;23.332;2023-02-28T08:15:54;28.63;;;13.55;;
23175;SDS011;19910;42.652;23.332;2023-02-28T08:18:22;28.58;;;12.15;;
23175;SDS011;19910;42.652;23.332;2023-02-28T08:20:49;26.08;;;12.52;;
23175;SDS011;19910;42.652;23.332;2023-02-28T08:23:16;37.53;;;15.52;;
23175;SDS011;19910;42.652;23.332;2023-02-28T08:25:44;27.15;;;15.27;;
23175;SDS011;19910;42.652;23.332;2023-02-28T08:28:11;30.77;;;13.75;;
23175;SDS011;19910;42.652;23.332;2023-02-28T08:30:38;36.70;;;14.10;;
23175;SDS011;19910;42.652;23.332;2023-02-28T08:33:06;23.60;;;10.30;;
23175;SDS011;19910;42.652;23.332;2023-02-28T08:35:34;35.35;;;12.18;;
23175;SDS011;19910;42.652;23.332;2023-02-28T08:38:01;28.92;;;12.10;;
23175;SDS011;19910;42.652;23.332;2023-02-28T08:40:28;32.22;;;15.30;;
23175;SDS011;19910;42.652;23.332;2023-02-28T08:42:56;31.85;;;13.75;;
23175;SDS011;19910;42.652;23.332;2023-02-28T08:45:23;33.10;;;13.85;;
23175;SDS011;19910;42.652;23.332;2023-02-28T08:47:50;26.88;;;13.10;;
23175;SDS011;19910;42.652;23.332;2023-02-28T08:50:17;35.58;;;14.65;;
23175;SDS011;19910;42.652;23.332;2023-02-28T08:52:44;26.33;;;12.68;;
23175;SDS011;19910;42.652;23.332;2023-02-28T08:55:11;29.27;;;13.10;;
23175;SDS011;19910;42.652;23.332;2023-02-28T08:57:38;31.25;;;13.43;;
23175;SDS011;19910;42.652;23.332;2023-02-28T09:00:07;30.45;;;12.00;;
23175;SDS011;19910;42.652;23.332;2023-02-28T09:02:35;38.60;;;15.48;;
23175;SDS011;19910;42.652;23.332;2023-02-28T09:05:02;37.13;;;16.98;;
23175;SDS011;19910;42.652;23.332;2023-02-28T09:07:29;36.53;;;15.23;;
23175;SDS011;19910;42.652;23.332;2023-02-28T09:09:56;39.85;;;14.88;;
23175;SDS011;19910;42.652;23.332;2023-02-28T09:12:23;34.35;;;14.40;;
23175;SDS011;19910;42.652;23.332;2023-02-28T09:14:51;35.00;;;14.13;;
23175;SDS011;19910;42.652;23.332;2023-02-28T09:17:20;38.33;;;15.10;;
23175;SDS011;19910;42.652;23.332;2023-02-28T09:19:47;47.67;;;18.17;;
23175;SDS011;19910;42.652;23.332;2023-02-28T09:22:14;48.95;;;23.17;;
23175;SDS011;19910;42.652;23.332;2023-02-28T09:24:41;40.42;;;17.45;;
23175;SDS011;19910;42.652;23.332;2023-02-28T09:27:09;54.35;;;19.52;;
23175;SDS011;19910;42.652;23.332;2023-02-28T09:29:36;37.80;;;16.77;;
23175;SDS011;19910;42.652;23.332;2023-02-28T09:32:03;46.58;;;19.23;;
23175;SDS011;19910;42.652;23.332;2023-02-28T09:34:32;52.03;;;20.45;;
23175;SDS011;19910;42.652;23.332;2023-02-28T09:37:01;51.13;;;19.80;;
23175;SDS011;19910;42.652;23.332;2023-02-28T09:39:28;37.00;;;15.70;;
23175;SDS011;19910;42.652;23.332;2023-02-28T09:41:56;43.55;;;17.42;;
23175;SDS011;19910;42.652;23.332;2023-02-28T09:44:26;42.03;;;17.63;;
23175;SDS011;19910;42.652;23.332;2023-02-28T09:46:57;35.33;;;16.98;;
23175;SDS011;19910;42.652;23.332;2023-02-28T09:49:30;25.52;;;9.55;;
23175;SDS011;19910;42.652;23.332;2023-02-28T09:52:04;30.38;;;12.75;;
23175;SDS011;19910;42.652;23.332;2023-02-28T09:54:35;13.90;;;6.90;;
23175;SDS011;19910;42.652;23.332;2023-02-28T09:57:06;24.40;;;9.95;;
23175;SDS011;19910;42.652;23.332;2023-02-28T09:59:38;26.13;;;8.52;;
23175;SDS011;19910;42.652;23.332;2023-02-28T10:02:18;22.13;;;8.73;;
23175;SDS011;19910;42.652;23.332;2023-02-28T10:05:04;11.70;;;5.45;;
23175;SDS011;19910;42.652;23.332;2023-02-28T10:07:41;11.98;;;5.95;;
23175;SDS011;19910;42.652;23.332;2023-02-28T10:10:22;30.40;;;8.57;;
23175;SDS011;19910;42.652;23.332;2023-02-28T10:12:55;20.55;;;7.30;;
23175;SDS011;19910;42.652;23.332;2023-02-28T10:15:25;20.63;;;9.02;;
23175;SDS011;19910;42.652;23.332;2023-02-28T10:17:56;13.48;;;5.50;;
23175;SDS011;19910;42.652;23.332;2023-02-28T10:20:28;21.15;;;8.02;;
23175;SDS011;19910;42.652;23.332;2023-02-28T10:23:02;18.77;;;8.18;;
23175;SDS011;19910;42.652;23.332;2023-02-28T10:25:35;26.42;;;9.50;;
23175;SDS011;19910;42.652;23.332;2023-02-28T10:28:07;24.58;;;8.18;;
23175;SDS011;19910;42.652;23.332;2023-02-28T10:30:37;16.90;;;5.72;;
23175;SDS011;19910;42.652;23.332;2023-02-28T10:33:08;13.57;;;5.65;;
23175;SDS011;19910;42.652;23.332;2023-02-28T10:35:45;13.52;;;5.88;;
23175;SDS011;19910;42.652;23.332;2023-02-28T10:38:15;17.50;;;7.03;;
23175;SDS011;19910;42.652;23.332;2023-02-28T10:40:44;15.98;;;6.38;;
23175;SDS011;19910;42.652;23.332;2023-02-28T10:43:18;16.23;;;6.78;;
23175;SDS011;19910;42.652;23.332;2023-02-28T10:45:57;12.27;;;4.72;;
23175;SDS011;19910;42.652;23.332;2023-02-28T10:48:32;9.70;;;4.82;;
23175;SDS011;19910;42.652;23.332;2023-02-28T10:51:02;13.52;;;6.22;;
23175;SDS011;19910;42.652;23.332;2023-02-28T10:53:31;12.80;;;6.05;;
23175;SDS011;19910;42.652;23.332;2023-02-28T10:56:01;14.40;;;5.93;;
23175;SDS011;19910;42.652;23.332;2023-02-28T10:58:30;22.88;;;9.30;;
23175;SDS011;19910;42.652;23.332;2023-02-28T11:00:58;13.07;;;5.72;;
23175;SDS011;19910;42.652;23.332;2023-02-28T11:03:31;19.70;;;8.02;;
23175;SDS011;19910;42.652;23.332;2023-02-28T11:06:03;17.00;;;6.22;;
23175;SDS011;19910;42.652;23.332;2023-02-28T11:08:34;13.60;;;5.72;;
23175;SDS011;19910;42.652;23.332;2023-02-28T11:11:03;17.27;;;6.18;;
23175;SDS011;19910;42.652;23.332;2023-02-28T11:13:32;20.27;;;8.38;;
23175;SDS011;19910;42.652;23.332;2023-02-28T11:16:04;20.08;;;8.38;;
23175;SDS011;19910;42.652;23.332;2023-02-28T11:18:35;11.82;;;5.43;;
23175;SDS011;19910;42.652;23.332;2023-02-28T11:21:07;14.75;;;7.32;;
23175;SDS011;19910;42.652;23.332;2023-02-28T11:23:36;19.27;;;7.85;;
23175;SDS011;19910;42.652;23.332;2023-02-28T11:26:06;14.82;;;6.78;;
23175;SDS011;19910;42.652;23.332;2023-02-28T11:28:36;23.80;;;7.45;;
23175;SDS011;19910;42.652;23.332;2023-02-28T11:31:05;16.65;;;7.25;;
23175;SDS011;19910;42.652;23.332;2023-02-28T11:33:41;8.60;;;4.72;;
23175;SDS011;19910;42.652;23.332;2023-02-28T11:36:12;18.63;;;7.13;;
23175;SDS011;19910;42.652;23.332;2023-02-28T11:38:41;20.75;;;6.70;;
23175;SDS011;19910;42.652;23.332;2023-02-28T11:41:11;27.63;;;10.32;;
23175;SDS011;19910;42.652;23.332;2023-02-28T11:46:38;14.93;;;6.45;;
23175;SDS011;19910;42.652;23.332;2023-02-28T11:49:15;17.23;;;7.32;;
23175;SDS011;19910;42.652;23.332;2023-02-28T11:51:58;19.27;;;8.45;;
23175;SDS011;19910;42.652;23.332;2023-02-28T11:54:35;16.10;;;7.35;;
23175;SDS011;19910;42.652;23.332;2023-02-28T11:57:32;29.48;;;10.52;;
23175;SDS011;19910;42.652;23.332;2023-02-28T12:00:07;22.17;;;8.30;;
23175;SDS011;19910;42.652;23.332;2023-02-28T12:02:51;24.15;;;9.13;;
23175;SDS011;19910;42.652;23.332;2023-02-28T12:05:30;15.20;;;6.68;;
23175;SDS011;19910;42.652;23.332;2023-02-28T12:08:09;20.70;;;9.02;;
23175;SDS011;19910;42.652;23.332;2023-02-28T12:10:52;20.52;;;6.97;;
23175;SDS011;19910;42.652;23.332;2023-02-28T12:13:32;11.25;;;5.38;;
23175;SDS011;19910;42.652;23.332;2023-02-28T12:19:13;13.18;;;6.38;;
23175;SDS011;19910;42.652;23.332;2023-02-28T12:21:52;14.27;;;6.90;;
23175;SDS011;19910;42.652;23.332;2023-02-28T12:24:47;22.10;;;10.23;;
23175;SDS011;19910;42.652;23.332;2023-02-28T12:27:33;19.00;;;7.65;;
23175;SDS011;19910;42.652;23.332;2023-02-28T12:30:04;16.65;;;6.38;;
23175;SDS011;19910;42.652;23.332;2023-02-28T12:32:40;17.73;;;8.57;;
23175;SDS011;19910;42.652;23.332;2023-02-28T12:35:11;14.15;;;5.53;;
23175;SDS011;19910;42.652;23.332;2023-02-28T12:37:41;15.63;;;6.75;;
23175;SDS011;19910;42.652;23.332;2023-02-28T12:40:13;15.65;;;7.63;;
23175;SDS011;19910;42.652;23.332;2023-02-28T12:42:44;15.02;;;6.72;;
23175;SDS011;19910;42.652;23.332;2023-02-28T12:45:18;15.50;;;7.00;;
23175;SDS011;19910;42.652;23.332;2023-02-28T12:47:48;18.80;;;10.23;;
23175;SDS011;19910;42.652;23.332;2023-02-28T12:50:21;18.20;;;7.80;;
23175;SDS011;19910;42.652;23.332;2023-02-28T12:52:51;16.10;;;7.43;;
23175;SDS011;19910;42.652;23.332;2023-02-28T12:55:26;14.68;;;7.53;;
23175;SDS011;19910;42.652;23.332;2023-02-28T12:57:59;11.20;;;5.30;;
23175;SDS011;19910;42.652;23.332;2023-02-28T13:00:33;13.82;;;6.53;;
23175;SDS011;19910;42.652;23.332;2023-02-28T13:06:11;12.68;;;5.95;;
23175;SDS011;19910;42.652;23.332;2023-02-28T13:08:59;19.58;;;8.30;;
23175;SDS011;19910;42.652;23.332;2023-02-28T13:11:32;18.98;;;6.70;;
23175;SDS011;19910;42.652;23.332;2023-02-28T13:14:05;13.43;;;6.75;;
23175;SDS011;19910;42.652;23.332;2023-02-28T13:16:53;11.20;;;5.35;;
23175;SDS011;19910;42.652;23.332;2023-02-28T13:19:23;14.82;;;6.05;;
23175;SDS011;19910;42.652;23.332;2023-02-28T13:21:51;25.52;;;9.45;;
23175;SDS011;19910;42.652;23.332;2023-02-28T13:24:42;12.77;;;4.95;;
23175;SDS011;19910;42.652;23.332;2023-02-28T13:33:20;14.55;;;5.55;;
23175;SDS011;19910;42.652;23.332;2023-02-28T13:35:55;10.95;;;5.38;;
23175;SDS011;19910;42.652;23.332;2023-02-28T13:38:37;11.57;;;5.20;;
23175;SDS011;19910;42.652;23.332;2023-02-28T13:44:10;9.40;;;5.30;;
23175;SDS011;19910;42.652;23.332;2023-02-28T13:49:39;5.57;;;3.47;;
23175;SDS011;19910;42.652;23.332;2023-02-28T13:52:07;10.60;;;4.80;;
23175;SDS011;19910;42.652;23.332;2023-02-28T13:54:44;8.43;;;3.85;;
23175;SDS011;19910;42.652;23.332;2023-02-28T13:57:25;10.15;;;5.53;;
23175;SDS011;19910;42.652;23.332;2023-02-28T14:00:06;12.68;;;4.32;;
23175;SDS011;19910;42.652;23.332;2023-02-28T14:02:58;10.10;;;4.47;;
23175;SDS011;19910;42.652;23.332;2023-02-28T14:05:34;17.70;;;4.78;;
23175;SDS011;19910;42.652;23.332;2023-02-28T14:08:04;17.00;;;5.25;;
23175;SDS011;19910;42.652;23.332;2023-02-28T14:10:41;14.43;;;5.22;;
23175;SDS011;19910;42.652;23.332;2023-02-28T14:13:14;10.13;;;5.47;;
23175;SDS011;19910;42.652;23.332;2023-02-28T14:16:12;21.90;;;6.20;;
23175;SDS011;19910;42.652;23.332;2023-02-28T14:18:41;16.50;;;6.97;;
23175;SDS011;19910;42.652;23.332;2023-02-28T14:21:19;15.40;;;4.38;;
23175;SDS011;19910;42.652;23.332;2023-02-28T14:24:07;9.73;;;3.63;;
23175;SDS011;19910;42.652;23.332;2023-02-28T14:27:06;14.13;;;4.45;;
23175;SDS011;19910;42.652;23.332;2023-02-28T14:33:21;14.27;;;6.35;;
23175;SDS011;19910;42.652;23.332;2023-02-28T14:36:12;13.77;;;5.22;;
23175;SDS011;19910;42.652;23.332;2023-02-28T14:38:45;14.32;;;4.60;;
23175;SDS011;19910;42.652;23.332;2023-02-28T14:41:18;13.85;;;5.15;;
23175;SDS011;19910;42.652;23.332;2023-02-28T14:43:48;13.05;;;4.97;;
23175;SDS011;19910;42.652;23.332;2023-02-28T14:46:20;8.32;;;3.60;;
23175;SDS011;19910;42.652;23.332;2023-02-28T14:48:50;12.20;;;5.47;;
23175;SDS011;19910;42.652;23.332;2023-02-28T14:51:18;11.60;;;5.53;;
23175;SDS011;19910;42.652;23.332;2023-02-28T14:53:47;10.63;;;4.32;;
23175;SDS011;19910;42.652;23.332;2023-02-28T14:56:24;14.57;;;6.20;;
23175;SDS011;19910;42.652;23.332;2023-02-28T14:58:55;7.95;;;4.28;;
23175;SDS011;19910;42.652;23.332;2023-02-28T15:01:24;15.68;;;4.68;;
23175;SDS011;19910;42.652;23.332;2023-02-28T15:03:59;16.17;;;7.60;;